createdAt,value
2018-08-16T00:00:33.777Z,9.73
2018-08-16T00:03:02.957Z,11.67
2018-08-16T00:05:32.099Z,10.60
2018-08-16T00:08:01.232Z,10.63
2018-08-16T00:10:30.408Z,11.00
2018-08-16T00:12:59.562Z,12.90
2018-08-16T00:15:28.711Z,9.50
2018-08-16T00:17:57.946Z,10.47
2018-08-16T00:20:27.133Z,9.70
2018-08-16T00:22:56.322Z,10.20
2018-08-16T00:25:25.498Z,12.13
2018-08-16T00:27:54.699Z,10.93
2018-08-16T00:30:23.820Z,14.53
2018-08-16T00:32:53.031Z,10.40
2018-08-16T00:35:22.141Z,10.67
2018-08-16T00:37:51.312Z,10.67
2018-08-16T00:40:20.445Z,10.57
2018-08-16T00:42:49.581Z,10.77
2018-08-16T00:45:18.741Z,16.17
2018-08-16T00:47:47.850Z,10.87
2018-08-16T00:50:17.088Z,11.13
2018-08-16T00:52:46.246Z,10.93
2018-08-16T00:55:15.573Z,18.13
2018-08-16T00:57:44.721Z,11.10
2018-08-16T01:00:16.586Z,14.63
2018-08-16T01:02:46.243Z,10.47
2018-08-16T01:05:15.452Z,10.87
2018-08-16T01:07:44.570Z,11.13
2018-08-16T01:10:14.658Z,12.40
2018-08-16T01:12:44.411Z,14.43
2018-08-16T01:15:15.918Z,11.20
2018-08-16T01:17:45.189Z,13.53
2018-08-16T01:20:14.482Z,17.33
2018-08-16T01:22:43.598Z,12.60
2018-08-16T01:25:12.873Z,13.03
2018-08-16T01:27:42.008Z,11.73
2018-08-16T01:30:11.463Z,12.70
2018-08-16T01:32:40.639Z,13.90
2018-08-16T01:35:10.508Z,13.60
2018-08-16T01:37:39.928Z,13.40
2018-08-16T01:40:09.629Z,14.80
2018-08-16T01:42:39.589Z,14.80
2018-08-16T01:45:09.500Z,13.17
2018-08-16T01:47:39.272Z,11.70
2018-08-16T01:50:08.791Z,12.63
2018-08-16T01:52:38.023Z,11.67
2018-08-16T01:55:07.922Z,12.03
2018-08-16T01:57:37.080Z,12.47
2018-08-16T02:00:09.050Z,13.97
2018-08-16T02:02:38.264Z,16.00
2018-08-16T02:05:07.911Z,12.00
2018-08-16T02:07:37.160Z,13.67
2018-08-16T02:10:07.697Z,13.47
2018-08-16T02:12:36.840Z,13.37
2018-08-16T02:15:09.845Z,12.43
2018-08-16T02:17:39.078Z,17.53
2018-08-16T02:20:11.051Z,15.70
2018-08-16T02:22:40.546Z,13.80
2018-08-16T02:25:09.940Z,12.97
2018-08-16T02:27:39.101Z,13.13
2018-08-16T02:30:09.687Z,13.10
2018-08-16T02:32:39.401Z,13.90
2018-08-16T02:35:08.866Z,12.30
2018-08-16T02:37:38.002Z,12.53
2018-08-16T02:40:08.217Z,15.30
2018-08-16T02:42:37.369Z,12.47
2018-08-16T02:45:06.535Z,13.00
2018-08-16T02:47:35.681Z,14.73
2018-08-16T02:50:04.828Z,12.47
2018-08-16T02:52:33.936Z,13.70
2018-08-16T02:55:03.157Z,13.90
2018-08-16T02:57:32.296Z,14.63
2018-08-16T03:00:01.665Z,13.40
2018-08-16T03:02:30.788Z,13.40
2018-08-16T03:04:59.965Z,17.23
2018-08-16T03:07:29.093Z,15.33
2018-08-16T03:09:58.249Z,14.40
2018-08-16T03:12:27.396Z,13.97
2018-08-16T03:14:56.803Z,12.93
2018-08-16T03:17:25.998Z,13.50
2018-08-16T03:19:55.238Z,14.60
2018-08-16T03:22:25.622Z,14.90
2018-08-16T03:24:55.120Z,14.87
2018-08-16T03:27:24.302Z,14.23
2018-08-16T03:29:53.509Z,14.90
2018-08-16T03:32:22.669Z,15.73
2018-08-16T03:34:51.949Z,17.17
2018-08-16T03:37:21.111Z,14.27
2018-08-16T03:39:50.280Z,14.70
2018-08-16T03:42:19.406Z,13.23
2018-08-16T03:44:48.558Z,15.30
2018-08-16T03:47:18.018Z,14.43
2018-08-16T03:49:47.143Z,16.40
2018-08-16T03:52:16.256Z,16.47
2018-08-16T03:54:45.477Z,13.67
2018-08-16T03:57:14.680Z,14.17
2018-08-16T03:59:43.864Z,15.60
2018-08-16T04:02:12.993Z,14.07
2018-08-16T04:04:42.114Z,14.37
2018-08-16T04:07:11.210Z,15.20
2018-08-16T04:09:40.426Z,15.00
2018-08-16T04:12:09.602Z,16.47
2018-08-16T04:14:38.713Z,17.00
2018-08-16T04:17:08.010Z,18.20
2018-08-16T04:19:37.248Z,18.97
2018-08-16T04:22:06.589Z,16.60
2018-08-16T04:24:35.790Z,16.67
2018-08-16T04:27:04.986Z,15.83
2018-08-16T04:29:34.192Z,17.00
2018-08-16T04:32:03.425Z,17.40
2018-08-16T04:34:32.956Z,18.37
2018-08-16T04:37:02.342Z,18.00
2018-08-16T04:39:34.748Z,17.50
2018-08-16T04:42:03.938Z,17.50
2018-08-16T04:44:33.372Z,17.20
2018-08-16T04:47:02.597Z,17.37
2018-08-16T04:49:31.860Z,16.80
2018-08-16T04:52:01.063Z,17.73
2018-08-16T04:54:30.222Z,16.57
2018-08-16T04:56:59.504Z,17.10
2018-08-16T04:59:28.599Z,17.60
2018-08-16T05:01:57.737Z,16.30
2018-08-16T05:04:27.032Z,17.00
2018-08-16T05:06:56.160Z,16.87
2018-08-16T05:09:25.326Z,17.60
2018-08-16T05:11:54.790Z,16.43
2018-08-16T05:14:23.992Z,16.97
2018-08-16T05:16:53.163Z,19.20
2018-08-16T05:19:22.538Z,17.03
2018-08-16T05:21:51.679Z,20.33
2018-08-16T05:24:20.872Z,17.10
2018-08-16T05:26:50.109Z,15.30
2018-08-16T05:29:20.698Z,16.40
2018-08-16T05:31:49.910Z,17.33
2018-08-16T05:34:19.298Z,18.67
2018-08-16T05:36:48.485Z,15.33
2018-08-16T05:39:17.680Z,15.63
2018-08-16T05:41:47.054Z,28.10
2018-08-16T05:44:16.326Z,17.13
2018-08-16T05:46:45.573Z,16.80
2018-08-16T05:49:14.865Z,15.03
2018-08-16T05:51:44.067Z,15.40
2018-08-16T05:54:13.231Z,16.17
2018-08-16T05:56:42.504Z,16.17
2018-08-16T05:59:11.858Z,20.30
2018-08-16T06:01:41.034Z,20.13
2018-08-16T06:04:10.256Z,15.13
2018-08-16T06:06:39.414Z,15.10
2018-08-16T06:09:10.428Z,17.60
2018-08-16T06:11:39.541Z,15.83
2018-08-16T06:14:09.792Z,15.63
2018-08-16T06:16:39.296Z,15.00
2018-08-16T06:19:08.552Z,23.00
2018-08-16T06:21:37.778Z,16.10
2018-08-16T06:24:07.247Z,17.13
2018-08-16T06:26:36.435Z,15.73
2018-08-16T06:29:05.737Z,18.30
2018-08-16T06:31:35.075Z,15.73
2018-08-16T06:34:04.303Z,19.70
2018-08-16T06:36:33.428Z,20.07
2018-08-16T06:39:03.919Z,18.47
2018-08-16T06:41:33.126Z,17.43
2018-08-16T06:44:02.292Z,16.03
2018-08-16T06:46:31.421Z,15.13
2018-08-16T06:49:00.892Z,17.03
2018-08-16T06:51:30.257Z,16.83
2018-08-16T06:53:59.670Z,15.10
2018-08-16T06:56:29.272Z,15.23
2018-08-16T06:58:58.665Z,17.90
2018-08-16T07:01:29.294Z,14.70
2018-08-16T07:03:58.547Z,15.33
2018-08-16T07:06:27.898Z,17.83
2018-08-16T07:08:57.070Z,21.73
2018-08-16T07:11:26.183Z,16.87
2018-08-16T07:13:55.337Z,15.63
2018-08-16T07:16:24.523Z,18.27
2018-08-16T07:18:53.661Z,16.53
2018-08-16T07:21:22.823Z,15.53
2018-08-16T07:23:52.024Z,15.80
2018-08-16T07:26:21.305Z,15.70
2018-08-16T07:28:50.513Z,15.30
2018-08-16T07:31:19.672Z,18.83
2018-08-16T07:33:48.812Z,16.77
2018-08-16T07:36:18.006Z,17.23
2018-08-16T07:38:47.179Z,15.73
2018-08-16T07:41:16.460Z,17.37
2018-08-16T07:43:45.605Z,14.83
2018-08-16T07:46:14.806Z,18.60
2018-08-16T07:48:43.943Z,16.60
2018-08-16T07:51:13.225Z,15.00
2018-08-16T07:53:42.376Z,15.67
2018-08-16T07:56:11.548Z,17.33
2018-08-16T07:58:43.002Z,21.83
2018-08-16T08:01:12.380Z,19.27
2018-08-16T08:03:41.684Z,21.17
2018-08-16T08:06:11.123Z,21.47
2018-08-16T08:08:40.392Z,21.80
2018-08-16T08:11:09.736Z,18.50
2018-08-16T08:13:38.989Z,18.53
2018-08-16T08:16:08.185Z,19.57
2018-08-16T08:18:37.351Z,19.70
2018-08-16T08:21:06.491Z,19.00
2018-08-16T08:23:35.722Z,19.90
2018-08-16T08:26:04.885Z,22.80
2018-08-16T08:28:34.223Z,19.53
2018-08-16T08:31:03.583Z,17.43
2018-08-16T08:33:32.725Z,20.27
2018-08-16T08:36:18.962Z,17.73
2018-08-16T08:38:48.342Z,19.00
2018-08-16T08:41:17.526Z,18.37
2018-08-16T08:44:03.812Z,18.93
2018-08-16T08:46:33.001Z,19.37
2018-08-16T08:49:02.211Z,18.63
2018-08-16T08:51:31.476Z,18.53
2018-08-16T08:54:31.469Z,18.53
2018-08-16T08:57:17.769Z,19.73
2018-08-16T08:59:47.072Z,16.97
2018-08-16T09:02:16.361Z,18.57
2018-08-16T09:04:45.539Z,15.63
2018-08-16T09:07:17.699Z,14.70
2018-08-16T09:11:05.630Z,19.23
2018-08-16T09:13:52.744Z,14.40
2018-08-16T09:16:30.788Z,18.53
2018-08-16T09:19:00.032Z,14.47
2018-08-16T09:21:30.044Z,12.40
2018-08-16T09:23:59.385Z,14.10
2018-08-16T09:26:35.340Z,18.80
2018-08-16T09:29:25.758Z,11.70
2018-08-16T09:32:14.652Z,13.20
2018-08-16T09:34:43.789Z,10.70
2018-08-16T09:37:17.127Z,11.50
2018-08-16T09:39:46.548Z,12.03
2018-08-16T09:42:15.895Z,10.20
2018-08-16T09:44:45.125Z,8.40
2018-08-16T09:48:33.000Z,10.47
2018-08-16T09:51:02.385Z,8.83
2018-08-16T09:53:31.706Z,7.60
2018-08-16T09:56:01.552Z,10.60
2018-08-16T09:58:30.891Z,10.00
2018-08-16T10:01:05.689Z,9.93
2018-08-16T10:03:35.221Z,11.27
2018-08-16T10:06:04.476Z,12.13
2018-08-16T10:08:38.594Z,13.43
2018-08-16T10:11:07.964Z,6.07
2018-08-16T10:13:37.203Z,10.60
2018-08-16T10:16:07.420Z,7.07
2018-08-16T10:18:36.774Z,7.30
2018-08-16T10:21:06.334Z,7.00
2018-08-16T10:23:35.682Z,9.13
2018-08-16T10:26:05.069Z,7.77
2018-08-16T10:28:34.421Z,4.90
2018-08-16T10:31:03.919Z,5.90
2018-08-16T10:33:33.366Z,7.10
2018-08-16T10:36:02.823Z,9.07
2018-08-16T10:38:32.187Z,5.83
2018-08-16T10:41:01.428Z,7.33
2018-08-16T10:43:30.657Z,5.43
2018-08-16T10:45:59.878Z,7.20
2018-08-16T10:48:29.200Z,7.80
2018-08-16T10:50:58.466Z,6.40
2018-08-16T10:53:28.177Z,6.53
2018-08-16T10:55:57.833Z,8.10
2018-08-16T10:58:27.176Z,7.97
2018-08-16T11:00:56.325Z,6.13
2018-08-16T11:03:25.678Z,6.83
2018-08-16T11:05:55.518Z,8.40
2018-08-16T11:08:25.372Z,5.90
2018-08-16T11:10:54.525Z,12.50
2018-08-16T11:13:23.727Z,8.97
2018-08-16T11:15:52.955Z,5.27
2018-08-16T11:18:22.123Z,8.60
2018-08-16T11:20:51.735Z,12.13
2018-08-16T11:23:20.861Z,7.67
2018-08-16T11:25:50.068Z,5.33
2018-08-16T11:28:19.286Z,6.73
2018-08-16T11:30:49.841Z,8.30
2018-08-16T11:33:19.539Z,7.50
2018-08-16T11:35:48.907Z,6.00
2018-08-16T11:38:18.314Z,7.63
2018-08-16T11:40:47.736Z,6.10
2018-08-16T11:43:17.155Z,8.33
2018-08-16T11:45:46.466Z,7.03
2018-08-16T11:48:16.244Z,10.50
2018-08-16T11:50:45.724Z,6.83
2018-08-16T11:53:15.278Z,6.90
2018-08-16T11:55:44.896Z,6.50
2018-08-16T11:58:14.087Z,6.10
2018-08-16T12:00:43.257Z,9.80
2018-08-16T12:03:12.467Z,8.07
2018-08-16T12:05:45.191Z,9.80
2018-08-16T12:08:14.499Z,6.67
2018-08-16T12:10:43.730Z,5.90
2018-08-16T12:13:13.047Z,6.07
2018-08-16T12:15:42.253Z,7.10
2018-08-16T12:18:11.594Z,7.50
2018-08-16T12:20:40.799Z,6.70
2018-08-16T12:23:09.994Z,7.80
2018-08-16T12:25:39.140Z,6.07
2018-08-16T12:28:08.465Z,7.00
2018-08-16T12:30:37.612Z,5.17
2018-08-16T12:33:06.781Z,6.17
2018-08-16T12:35:35.926Z,8.70
2018-08-16T12:38:05.039Z,7.17
2018-08-16T12:40:34.288Z,5.37
2018-08-16T12:43:03.431Z,6.20
2018-08-16T12:45:32.636Z,5.47
2018-08-16T12:48:01.841Z,9.50
2018-08-16T12:50:31.029Z,6.30
2018-08-16T12:53:00.286Z,6.13
2018-08-16T12:55:29.588Z,6.13
2018-08-16T12:57:59.065Z,6.70
2018-08-16T13:00:28.467Z,6.63
2018-08-16T13:02:58.110Z,8.17
2018-08-16T13:05:27.513Z,4.90
2018-08-16T13:07:56.926Z,8.40
2018-08-16T13:10:26.164Z,10.13
2018-08-16T13:12:55.319Z,4.70
2018-08-16T13:15:24.507Z,5.60
2018-08-16T13:17:53.675Z,8.10
2018-08-16T13:20:22.854Z,7.30
2018-08-16T13:22:52.015Z,6.80
2018-08-16T13:25:21.184Z,5.20
2018-08-16T13:27:50.399Z,6.27
2018-08-16T13:30:19.742Z,4.77
2018-08-16T13:32:49.070Z,8.97
2018-08-16T13:35:18.464Z,5.13
2018-08-16T13:37:47.936Z,6.33
2018-08-16T13:40:17.125Z,5.10
2018-08-16T13:42:46.398Z,5.87
2018-08-16T13:45:15.677Z,10.70
2018-08-16T13:47:44.959Z,4.33
2018-08-16T13:50:14.177Z,9.80
2018-08-16T13:52:43.345Z,7.37
2018-08-16T13:55:12.639Z,4.73
2018-08-16T13:57:42.640Z,5.80
2018-08-16T14:00:11.998Z,11.23
2018-08-16T14:02:41.416Z,8.07
2018-08-16T14:05:10.914Z,3.73
2018-08-16T14:07:40.198Z,5.10
2018-08-16T14:10:09.725Z,5.90
2018-08-16T14:12:39.563Z,4.53
2018-08-16T14:15:09.096Z,11.47
2018-08-16T14:17:39.758Z,4.47
2018-08-16T14:20:09.928Z,5.80
2018-08-16T14:22:42.386Z,4.80
2018-08-16T14:25:14.503Z,6.20
2018-08-16T14:27:44.294Z,9.13
2018-08-16T14:30:13.525Z,5.57
2018-08-16T14:32:43.192Z,6.40
2018-08-16T14:35:12.754Z,12.40
2018-08-16T14:37:42.293Z,7.47
2018-08-16T14:40:11.909Z,5.43
2018-08-16T14:42:41.587Z,9.50
2018-08-16T14:45:11.241Z,6.27
2018-08-16T14:47:40.573Z,15.40
2018-08-16T14:50:10.008Z,6.10
2018-08-16T14:52:39.280Z,7.97
2018-08-16T14:55:08.600Z,8.00
2018-08-16T14:57:37.724Z,4.43
2018-08-16T15:00:08.406Z,4.37
2018-08-16T15:02:37.555Z,4.73
2018-08-16T15:05:07.412Z,7.93
2018-08-16T15:07:36.656Z,8.83
2018-08-16T15:10:07.131Z,5.00
2018-08-16T15:12:36.357Z,9.70
2018-08-16T15:15:05.942Z,7.90
2018-08-16T15:17:35.151Z,4.27
2018-08-16T15:20:04.788Z,4.77
2018-08-16T15:22:33.934Z,4.57
2018-08-16T15:25:03.155Z,5.90
2018-08-16T15:27:32.332Z,7.40
2018-08-16T15:30:01.515Z,5.93
2018-08-16T15:32:30.728Z,3.87
2018-08-16T15:35:00.036Z,5.77
2018-08-16T15:37:29.290Z,6.13
2018-08-16T15:39:58.423Z,5.30
2018-08-16T15:42:27.679Z,7.60
2018-08-16T15:44:56.837Z,6.40
2018-08-16T15:47:26.143Z,4.00
2018-08-16T15:49:57.145Z,5.07
2018-08-16T15:52:26.438Z,5.83
2018-08-16T15:54:55.954Z,9.40
2018-08-16T15:57:25.351Z,4.87
2018-08-16T15:59:54.747Z,5.93
2018-08-16T16:02:24.058Z,4.60
2018-08-16T16:04:53.327Z,3.90
2018-08-16T16:07:22.569Z,10.63
2018-08-16T16:09:51.805Z,6.57
2018-08-16T16:12:21.032Z,8.73
2018-08-16T16:14:50.253Z,13.03
2018-08-16T16:17:19.476Z,3.60
2018-08-16T16:19:48.885Z,7.00
2018-08-16T16:22:18.065Z,4.97
2018-08-16T16:24:47.238Z,4.90
2018-08-16T16:27:16.536Z,4.57
2018-08-16T16:29:45.855Z,6.57
2018-08-16T16:32:15.065Z,6.13
2018-08-16T16:34:44.251Z,5.50
2018-08-16T16:37:13.434Z,9.13
2018-08-16T16:39:42.763Z,5.50
2018-08-16T16:42:12.102Z,10.63
2018-08-16T16:44:41.421Z,8.90
2018-08-16T16:47:11.363Z,6.13
2018-08-16T16:49:40.969Z,4.93
2018-08-16T16:52:10.272Z,5.30
2018-08-16T16:54:39.781Z,8.13
2018-08-16T16:57:08.977Z,6.70
2018-08-16T16:59:38.518Z,6.37
2018-08-16T17:02:08.091Z,7.40
2018-08-16T17:04:37.620Z,6.67
2018-08-16T17:07:07.740Z,9.80
2018-08-16T17:09:37.288Z,5.90
2018-08-16T17:12:07.260Z,7.40
2018-08-16T17:14:36.795Z,7.27
2018-08-16T17:17:06.388Z,11.27
2018-08-16T17:19:35.743Z,8.00
2018-08-16T17:22:05.084Z,8.07
2018-08-16T17:24:34.262Z,8.50
2018-08-16T17:27:03.575Z,7.27
2018-08-16T17:29:32.748Z,7.20
2018-08-16T17:32:02.137Z,6.53
2018-08-16T17:34:31.267Z,6.27
2018-08-16T17:37:00.404Z,7.23
2018-08-16T17:39:29.631Z,10.43
2018-08-16T17:41:58.876Z,7.20
2018-08-16T17:44:27.976Z,11.90
2018-08-16T17:46:57.128Z,9.03
2018-08-16T17:49:26.276Z,8.57
2018-08-16T17:51:55.565Z,8.57
2018-08-16T17:54:24.812Z,10.23
2018-08-16T17:56:53.960Z,12.17
2018-08-16T17:59:23.255Z,9.20
2018-08-16T18:01:52.613Z,7.00
2018-08-16T18:04:21.750Z,9.40
2018-08-16T18:06:51.075Z,9.50
2018-08-16T18:09:20.376Z,9.07
2018-08-16T18:11:49.744Z,13.73
2018-08-16T18:14:19.280Z,8.83
2018-08-16T18:16:48.824Z,11.13
2018-08-16T18:19:18.365Z,11.20
2018-08-16T18:21:47.996Z,14.07
2018-08-16T18:24:17.347Z,9.87
2018-08-16T18:26:47.085Z,9.47
2018-08-16T18:29:16.279Z,15.03
2018-08-16T18:31:45.448Z,10.70
2018-08-16T18:34:14.791Z,10.07
2018-08-16T18:36:44.044Z,10.90
2018-08-16T18:39:13.146Z,9.77
2018-08-16T18:41:42.337Z,10.00
2018-08-16T18:44:11.524Z,13.13
2018-08-16T18:46:40.696Z,10.57
2018-08-16T18:49:09.867Z,16.53
2018-08-16T18:51:39.040Z,13.13
2018-08-16T18:54:08.231Z,10.70
2018-08-16T18:56:37.459Z,11.57
2018-08-16T18:59:06.685Z,14.80
2018-08-16T19:01:35.955Z,10.33
2018-08-16T19:04:05.149Z,11.20
2018-08-16T19:06:34.524Z,11.67
2018-08-16T19:09:04.006Z,18.23
2018-08-16T19:11:33.973Z,13.57
2018-08-16T19:14:03.396Z,13.17
2018-08-16T19:16:32.810Z,14.77
2018-08-16T19:19:02.401Z,15.00
2018-08-16T19:21:32.021Z,13.60
2018-08-16T19:24:01.552Z,14.67
2018-08-16T19:26:32.518Z,14.03
2018-08-16T19:29:02.596Z,22.47
2018-08-16T19:31:32.164Z,14.50
2018-08-16T19:34:02.021Z,15.93
2018-08-16T19:36:31.484Z,16.70
2018-08-16T19:39:00.964Z,13.83
2018-08-16T19:41:30.274Z,14.93
2018-08-16T19:43:59.680Z,14.13
2018-08-16T19:46:29.063Z,13.20
2018-08-16T19:48:58.365Z,19.47
2018-08-16T19:51:28.025Z,12.53
2018-08-16T19:53:57.223Z,15.30
2018-08-16T19:56:26.516Z,14.43
2018-08-16T19:58:55.883Z,13.83
2018-08-16T20:01:25.497Z,14.37
2018-08-16T20:03:54.773Z,12.97
2018-08-16T20:06:24.098Z,14.77
2018-08-16T20:08:54.806Z,15.80
2018-08-16T20:11:24.041Z,16.63
2018-08-16T20:13:53.409Z,19.13
2018-08-16T20:16:22.653Z,13.13
2018-08-16T20:18:52.181Z,17.13
2018-08-16T20:21:21.460Z,14.87
2018-08-16T20:23:50.866Z,15.83
2018-08-16T20:26:20.096Z,15.73
2018-08-16T20:28:49.352Z,18.47
2018-08-16T20:31:18.539Z,15.00
2018-08-16T20:33:47.796Z,21.03
2018-08-16T20:36:17.085Z,15.50
2018-08-16T20:38:46.302Z,15.13
2018-08-16T20:41:15.561Z,18.57
2018-08-16T20:43:45.103Z,17.70
2018-08-16T20:46:14.852Z,15.30
2018-08-16T20:48:44.246Z,16.77
2018-08-16T20:51:13.826Z,16.10
2018-08-16T20:53:43.456Z,14.10
2018-08-16T20:56:13.174Z,16.50
2018-08-16T20:58:42.611Z,14.57
2018-08-16T21:01:12.015Z,14.40
2018-08-16T21:03:41.263Z,24.20
2018-08-16T21:06:10.512Z,15.23
2018-08-16T21:08:39.786Z,15.77
2018-08-16T21:11:09.136Z,16.60
2018-08-16T21:13:38.537Z,14.03
2018-08-16T21:16:07.818Z,15.43
2018-08-16T21:18:37.014Z,15.13
2018-08-16T21:21:06.719Z,13.87
2018-08-16T21:23:35.905Z,15.27
2018-08-16T21:26:05.168Z,15.83
2018-08-16T21:28:34.480Z,14.13
2018-08-16T21:31:03.846Z,14.13
2018-08-16T21:33:33.022Z,13.20
2018-08-16T21:36:02.195Z,13.00
2018-08-16T21:38:31.357Z,16.03
2018-08-16T21:41:00.501Z,12.10
2018-08-16T21:43:29.677Z,13.00
2018-08-16T21:45:58.816Z,14.27
2018-08-16T21:48:28.191Z,12.43
2018-08-16T21:50:57.350Z,12.40
2018-08-16T21:53:26.551Z,14.90
2018-08-16T21:55:55.977Z,13.40
2018-08-16T21:58:25.173Z,12.30
2018-08-16T22:00:57.177Z,15.20
2018-08-16T22:03:27.698Z,13.13
2018-08-16T22:06:04.273Z,15.53
2018-08-16T22:08:41.769Z,12.87
2018-08-16T22:11:11.266Z,13.80
2018-08-16T22:13:40.665Z,14.80
2018-08-16T22:16:09.843Z,13.17
2018-08-16T22:18:39.360Z,14.23
2018-08-16T22:21:08.871Z,13.97
2018-08-16T22:23:37.993Z,12.73
2018-08-16T22:26:07.232Z,13.13
2018-08-16T22:28:36.391Z,13.70
2018-08-16T22:31:05.577Z,17.20
2018-08-16T22:33:34.788Z,13.87
2018-08-16T22:36:04.193Z,14.80
2018-08-16T22:38:33.508Z,14.20
2018-08-16T22:41:02.694Z,15.33
2018-08-16T22:43:31.906Z,16.60
2018-08-16T22:46:01.189Z,15.03
2018-08-16T22:48:30.385Z,13.90
2018-08-16T22:50:59.911Z,14.77
2018-08-16T22:53:29.197Z,13.83
2018-08-16T22:55:58.421Z,13.30
2018-08-16T22:58:27.589Z,16.53
2018-08-16T23:00:56.753Z,13.57
2018-08-16T23:03:25.856Z,15.53
2018-08-16T23:05:55.171Z,13.67
2018-08-16T23:08:24.378Z,14.73
2018-08-16T23:10:53.557Z,13.77
2018-08-16T23:13:22.731Z,14.37
2018-08-16T23:15:51.898Z,17.57
2018-08-16T23:18:20.987Z,17.90
2018-08-16T23:20:50.169Z,14.37
2018-08-16T23:23:19.314Z,15.43
2018-08-16T23:25:48.606Z,20.40
2018-08-16T23:28:17.812Z,15.33
2018-08-16T23:30:46.931Z,16.50
2018-08-16T23:33:16.104Z,16.10
2018-08-16T23:35:45.227Z,14.97
2018-08-16T23:38:14.358Z,15.53
2018-08-16T23:40:43.558Z,19.50
2018-08-16T23:43:12.767Z,18.60
2018-08-16T23:45:42.024Z,17.13
2018-08-16T23:48:29.400Z,17.70
2018-08-16T23:50:58.988Z,21.07
2018-08-16T23:53:28.309Z,17.73
2018-08-16T23:55:57.717Z,21.60
2018-08-16T23:58:26.826Z,18.27
